Miami, FL (33187)

10:04 AM EDT on April 27, 2015 (GMT -0400)
JA Richmond West | | Change Station
CLOSE
Current Station
Personal Weather Station
Location: Miami, FL
Elevation: 7 ft
Nearby Weather Stations

Elev 7 ft 25.61 °N, 80.43 °W | Updated 41 seconds ago

Clear
Clear
90.9 °F
Feels Like 104 °F
N
2.2
Wind Variable Wind from WNW
Gusts 4.7 mph

Today
High -- | Low -- °F
--% Chance of Precip.
Yesterday
High -- | Low -- °F
Precip. -- in
6:48 AM 7:50 PM
Waxing Gibbous, 65% visible
Pressure 29.87 in
Visibility 10.0 miles
Clouds Few 5000 ft
Heat Index 104 °F
Dew Point 77 °F
Humidity 64%
Rainfall 0.00 in
Snow Depth Not available.
UV 6 out of 12
Pollen 5.90 out of 12
Air Quality Not available.
Flu Activity Local Activity
METAR KTMB 271353Z 31007KT 10SM FEW050 31/23 A2987 RMK AO2 SLP114 T03060233

More Conditions Fewer Conditions

Pressure 29.87 in
Visibility 10.0 miles
Clouds Few 5000 ft
Heat Index 104 °F
Dew Point 77 °F
Humidity 64%
Rainfall 0.00 in
Snow Depth Not available.
UV 6 out of 12
Pollen 5.90 out of 12
Air Quality Not available.
Flu Activity Local Activity
METAR KTMB 271353Z 31007KT 10SM FEW050 31/23 A2987 RMK AO2 SLP114 T03060233

More Conditions Fewer Conditions

10-Day Weather Forecast

Almanac

Astronomy

Apr. 27, 2015 Rise Set
Actual Time
Civil Twilight
Nautical Twilight
Astronomical Twilight
Moon
Length of Visible Light
Length of Day
Tomorrow will be .
, % of the Moon is Illuminated

Today's Extremes

State Highs State Lows

Community

WunderPhotos

Upload Photos

1,817,309 photos uploaded!

WunderBlogs® & News

Nearby

Air Quality

  Air Quality AQ Index Pollutant
Not available.

Snow Depth

Station Depth Elevation

Earthquake Activity

City Distance Mag. Time & Date
Minimum magnitude displayed is 2.5.

Coastal Water Temperatures

Place Temperature

Stations

Nearby Weather Stations

Station Location Temp. Windchill Dew Point Humidity Wind Precip. Elev Updated Type